Time;durP1;ratioP1;P1;durP2;ratioP2;P2;SDS_P1;SDS_P2;PMS_P1;PMS_P2;Temp;Humidity;BMP_temperature;BMP_pressure;BME280_temperature;BME280_humidity;BME280_pressure;Samples;Min_cycle;Max_cycle;Signal;HPM_P1;HPM_P2
2023/02/15 00:02:25;;;;;;;33.17;23.23;;;;;;;0.80;100.00;97990.00;5094744;28;20228;-59
2023/02/15 00:04:50;;;;;;;31.07;21.30;;;;;;;0.71;100.00;97986.47;5094452;28;20302;-60
2023/02/15 00:07:17;;;;;;;30.17;21.77;;;;;;;0.71;100.00;97986.47;5108757;28;20176;-57
2023/02/15 00:09:46;;;;;;;27.13;20.70;;;;;;;0.71;100.00;97980.50;5114162;28;20301;-60
2023/02/15 00:12:11;;;;;;;31.23;21.57;;;;;;;0.75;100.00;97977.50;5111037;28;20206;-57
2023/02/15 00:14:37;;;;;;;29.00;20.53;;;;;;;0.61;100.00;97974.53;5114390;28;20172;-59
2023/02/15 00:17:02;;;;;;;30.13;21.90;;;;;;;0.64;100.00;97966.50;5114279;28;20651;-62
2023/02/15 00:19:28;;;;;;;30.53;21.57;;;;;;;0.57;100.00;97971.38;5113267;28;20532;-59
2023/02/15 00:21:53;;;;;;;30.87;22.83;;;;;;;0.55;100.00;97969.91;5085151;28;20176;-59
2023/02/15 00:24:19;;;;;;;30.93;20.83;;;;;;;0.61;100.00;97964.19;5113117;28;20191;-58
2023/02/15 00:26:46;;;;;;;29.67;21.70;;;;;;;0.55;100.00;97965.56;5113745;28;20269;-60
2023/02/15 00:29:14;;;;;;;33.63;21.67;;;;;;;0.49;100.00;97966.09;5113756;28;20507;-60
2023/02/15 00:31:39;;;;;;;33.60;22.17;;;;;;;0.46;100.00;97960.38;5106224;28;20259;-60
2023/02/15 00:34:10;;;;;;;33.30;21.90;;;;;;;0.60;100.00;97963.38;5093960;28;20216;-60
2023/02/15 00:36:36;;;;;;;35.50;23.13;;;;;;;0.50;100.00;97961.75;5108923;28;20211;-60
2023/02/15 00:39:01;;;;;;;34.13;23.47;;;;;;;0.47;100.00;97964.56;5112004;28;20194;-60
2023/02/15 00:41:27;;;;;;;34.90;23.60;;;;;;;0.41;100.00;97960.78;5099631;28;20187;-59
2023/02/15 00:43:52;;;;;;;36.13;24.73;;;;;;;0.39;100.00;97952.38;5113442;28;20200;-60
2023/02/15 00:46:18;;;;;;;33.13;24.87;;;;;;;0.40;100.00;97957.38;5113596;28;20203;-61
2023/02/15 00:48:43;;;;;;;35.00;25.00;;;;;;;0.40;100.00;97953.97;5094155;28;20228;-60
2023/02/15 00:51:09;;;;;;;35.40;24.10;;;;;;;0.41;100.00;97958.19;5097176;28;20214;-60
2023/02/15 00:53:34;;;;;;;37.37;24.73;;;;;;;0.39;100.00;97963.47;5106150;28;20280;-62
2023/02/15 00:55:59;;;;;;;34.30;22.53;;;;;;;0.33;100.00;97951.16;5093612;28;20311;-60
2023/02/15 00:58:25;;;;;;;31.90;22.43;;;;;;;0.38;100.00;97961.06;5098626;28;20180;-60
2023/02/15 01:00:51;;;;;;;31.90;22.43;;;;;;;0.35;100.00;97959.53;5112857;28;20671;-62
2023/02/15 01:03:19;;;;;;;37.17;22.70;;;;;;;0.36;100.00;97960.34;5113931;28;20184;-60
2023/02/15 01:05:46;;;;;;;34.70;23.13;;;;;;;0.39;100.00;97960.09;5113420;28;20207;-61
2023/02/15 01:08:11;;;;;;;35.97;22.67;;;;;;;0.34;100.00;97957.09;5110437;28;20655;-60
2023/02/15 01:10:36;;;;;;;31.33;21.97;;;;;;;0.31;100.00;97954.78;5093685;28;20195;-60
2023/02/15 01:13:02;;;;;;;35.77;22.17;;;;;;;0.39;100.00;97947.22;5093585;28;20184;-60
2023/02/15 01:15:28;;;;;;;33.40;22.00;;;;;;;0.35;100.00;97954.38;5106207;28;20694;-58
2023/02/15 01:17:53;;;;;;;35.00;22.60;;;;;;;0.48;100.00;97953.31;5112349;28;20551;-62
2023/02/15 01:20:21;;;;;;;35.23;23.30;;;;;;;0.39;100.00;97952.38;5078281;28;20558;-62
2023/02/15 01:22:46;;;;;;;37.33;24.50;;;;;;;0.48;100.00;97954.13;5113133;28;20280;-59
2023/02/15 01:25:12;;;;;;;35.13;23.23;;;;;;;0.53;100.00;97949.38;5113414;28;20683;-60
2023/02/15 01:27:38;;;;;;;35.57;24.00;;;;;;;0.49;100.00;97957.53;5095625;28;20234;-62
2023/02/15 01:30:05;;;;;;;39.90;25.10;;;;;;;0.41;100.00;97955.63;5113304;28;20207;-60
2023/02/15 01:32:30;;;;;;;35.60;24.77;;;;;;;0.38;100.00;97955.91;5091835;28;20697;-60
2023/02/15 01:34:56;;;;;;;36.23;24.43;;;;;;;0.30;100.00;97948.81;5104652;28;20311;-60
2023/02/15 01:37:22;;;;;;;37.47;23.77;;;;;;;0.30;100.00;97950.56;5098782;28;20538;-60
2023/02/15 01:39:47;;;;;;;36.13;24.13;;;;;;;0.23;100.00;97950.28;5111379;28;20203;-62
2023/02/15 01:42:13;;;;;;;36.83;24.27;;;;;;;0.28;100.00;97947.34;5113470;28;20187;-61
2023/02/15 01:44:50;;;;;;;33.90;24.23;;;;;;;0.16;100.00;97949.22;5111139;28;20257;-60
2023/02/15 01:47:23;;;;;;;39.40;26.10;;;;;;;0.12;100.00;97945.25;5109796;28;20563;-60
2023/02/15 01:50:08;;;;;;;40.90;28.70;;;;;;;0.09;100.00;97942.13;5112303;28;20183;-60
2023/02/15 01:52:39;;;;;;;47.97;31.03;;;;;;;0.08;100.00;97946.47;5112417;28;20211;-60
2023/02/15 01:55:06;;;;;;;45.60;30.47;;;;;;;0.12;100.00;97944.44;5101105;28;20210;-60
2023/02/15 01:57:32;;;;;;;37.67;26.07;;;;;;;0.14;100.00;97945.13;5093961;28;20590;-60
2023/02/15 02:00:02;;;;;;;36.77;24.23;;;;;;;0.24;100.00;97939.03;5092830;28;20180;-63
2023/02/15 02:02:28;;;;;;;37.67;24.37;;;;;;;0.28;100.00;97932.66;5100560;28;20536;-60
2023/02/15 02:04:59;;;;;;;37.67;24.53;;;;;;;0.25;100.00;97932.13;5101757;28;20192;-60
2023/02/15 02:07:29;;;;;;;35.77;24.20;;;;;;;0.14;100.00;97932.25;5112482;28;20183;-61
2023/02/15 02:09:55;;;;;;;34.63;23.37;;;;;;;0.17;100.00;97937.16;5111865;28;20265;-61
2023/02/15 02:12:23;;;;;;;37.97;24.90;;;;;;;0.13;100.00;97931.41;5107008;28;20181;-61
2023/02/15 02:14:50;;;;;;;39.00;25.07;;;;;;;0.24;100.00;97927.91;5100027;28;20287;-60
2023/02/15 02:17:29;;;;;;;40.80;25.90;;;;;;;0.16;100.00;97931.19;5108098;28;20185;-60
2023/02/15 02:20:25;;;;;;;37.33;23.97;;;;;;;0.08;100.00;97925.03;5092800;28;20633;-60
2023/02/15 02:23:03;;;;;;;35.60;24.07;;;;;;;0.21;100.00;97925.63;5100805;28;20188;-60
2023/02/15 02:26:09;;;;;;;37.83;22.90;;;;;;;-0.03;100.00;97920.81;5094047;28;20208;-60
2023/02/15 02:29:12;;;;;;;34.17;23.73;;;;;;;-0.10;100.00;97923.09;5105038;28;20673;-59
2023/02/15 02:32:32;;;;;;;33.83;24.23;;;;;;;-0.05;100.00;97918.34;5106435;28;20200;-60
2023/02/15 02:35:26;;;;;;;35.63;23.40;;;;;;;-0.11;100.00;97911.16;5106984;28;20238;-59
2023/02/15 02:37:54;;;;;;;35.30;23.33;;;;;;;-0.18;100.00;97920.38;5095120;28;20245;-60
2023/02/15 02:40:28;;;;;;;37.10;25.00;;;;;;;-0.08;100.00;97913.47;5110922;28;20184;-58
2023/02/15 02:43:05;;;;;;;37.27;24.53;;;;;;;-0.07;100.00;97909.97;5111859;28;20192;-59
2023/02/15 02:45:56;;;;;;;38.53;23.90;;;;;;;-0.09;100.00;97905.88;5112039;28;20211;-60
2023/02/15 02:48:27;;;;;;;36.90;22.83;;;;;;;-0.13;100.00;97913.06;5107135;28;20269;-59
2023/02/15 02:50:53;;;;;;;37.80;24.70;;;;;;;-0.12;100.00;97914.72;5097859;28;20208;-55
2023/02/15 02:53:18;;;;;;;39.03;24.63;;;;;;;-0.24;100.00;97909.78;5096047;28;20181;-60
2023/02/15 02:55:53;;;;;;;39.70;24.57;;;;;;;-0.12;100.00;97911.31;5095995;28;20247;-60
2023/02/15 02:58:43;;;;;;;36.80;24.77;;;;;;;-0.34;100.00;97912.34;5096822;28;20241;-60
2023/02/15 03:01:08;;;;;;;40.13;24.43;;;;;;;-0.24;100.00;97909.78;5107005;28;20176;-59
2023/02/15 03:03:42;;;;;;;38.80;24.13;;;;;;;-0.27;100.00;97910.84;5115843;28;20224;-58
2023/02/15 03:06:17;;;;;;;37.03;24.57;;;;;;;-0.16;100.00;97908.16;5094125;28;20205;-62
2023/02/15 03:08:49;;;;;;;38.53;24.20;;;;;;;-0.20;100.00;97906.00;5093622;28;20341;-63
2023/02/15 03:11:15;;;;;;;37.90;23.27;;;;;;;-0.32;100.00;97909.59;5095700;28;20223;-60
2023/02/15 03:13:43;;;;;;;38.03;23.50;;;;;;;-0.31;100.00;97909.47;5095708;28;20660;-61
2023/02/15 03:16:25;;;;;;;36.93;23.60;;;;;;;-0.24;100.00;97908.03;5096404;28;20270;-60
2023/02/15 03:19:11;;;;;;;36.40;23.17;;;;;;;-0.25;100.00;97901.22;5106451;28;20192;-63
2023/02/15 03:22:03;;;;;;;43.67;25.23;;;;;;;-0.26;100.00;97896.22;5114053;28;20180;-60
2023/02/15 03:24:35;;;;;;;39.10;24.10;;;;;;;-0.37;100.00;97902.28;5115504;28;20176;-60
2023/02/15 03:27:04;;;;;;;37.17;24.53;;;;;;;-0.29;100.00;97901.63;5086893;28;20608;-62
2023/02/15 03:29:31;;;;;;;38.07;25.27;;;;;;;-0.53;100.00;97900.19;5103041;28;20220;-57
2023/02/15 03:32:01;;;;;;;41.37;26.80;;;;;;;-0.50;100.00;97901.69;5077619;28;20208;-58
2023/02/15 03:34:27;;;;;;;41.30;26.30;;;;;;;-0.46;100.00;97898.75;5095369;28;20189;-58
2023/02/15 03:37:16;;;;;;;44.17;29.00;;;;;;;-0.44;100.00;97898.59;5106664;28;20215;-58
2023/02/15 03:41:09;;;;;;;40.80;28.93;;;;;;;-0.61;100.00;97894.88;5101625;28;20232;-58
2023/02/15 03:43:14;;;;;;;44.43;26.23;;;;;;;-0.58;100.00;97896.38;5069141;28;20293;-60
2023/02/15 03:45:54;;;;;;;41.03;27.83;;;;;;;-0.62;100.00;97906.13;5093381;28;20246;-60
2023/02/15 03:48:24;;;;;;;45.53;29.43;;;;;;;-0.63;100.00;97898.53;5108307;28;20266;-60
2023/02/15 03:53:37;;;;;;;38.97;26.87;;;;;;;-0.60;100.00;97908.56;5095006;28;20184;-62
2023/02/15 03:56:03;;;;;;;38.27;26.73;;;;;;;-0.72;100.00;97901.84;5103039;28;20747;-62
2023/02/15 04:04:15;;;;;;;42.13;26.20;;;;;;;-0.73;100.00;97901.06;5095619;28;20184;-60
2023/02/15 04:06:41;;;;;;;38.70;26.03;;;;;;;-0.91;100.00;97905.16;5094657;28;20235;-60
2023/02/15 04:11:50;;;;;;;37.50;24.60;;;;;;;-0.76;100.00;97901.31;5094362;28;20257;-59
2023/02/15 04:16:59;;;;;;;36.20;24.57;;;;;;;-0.93;100.00;97902.72;5113722;28;20296;-61
2023/02/15 04:25:12;;;;;;;41.77;26.30;;;;;;;-0.95;100.00;97903.81;5099918;28;20233;-58
2023/02/15 04:27:38;;;;;;;40.03;25.33;;;;;;;-0.99;100.00;97890.34;5102144;28;20697;-60
2023/02/15 04:30:05;;;;;;;38.47;25.13;;;;;;;-0.85;100.00;97892.63;5094211;28;20208;-58
2023/02/15 04:32:31;;;;;;;37.63;25.97;;;;;;;-0.95;100.00;97890.94;5078049;28;20586;-62
2023/02/15 04:34:56;;;;;;;39.00;25.87;;;;;;;-0.80;100.00;97891.41;5106390;28;20268;-61
2023/02/15 04:37:21;;;;;;;39.47;25.27;;;;;;;-0.97;100.00;97893.63;5113749;28;20192;-60
2023/02/15 04:39:47;;;;;;;38.13;25.50;;;;;;;-0.97;100.00;97887.66;5114117;28;20231;-61
2023/02/15 04:42:12;;;;;;;37.47;25.37;;;;;;;-1.02;100.00;97888.06;5113909;28;20662;-57
2023/02/15 04:44:38;;;;;;;37.00;25.37;;;;;;;-0.94;100.00;97887.41;5094134;28;20188;-57
2023/02/15 04:47:03;;;;;;;35.00;24.60;;;;;;;-0.95;100.00;97885.78;5102935;28;20632;-58
2023/02/15 04:49:29;;;;;;;36.97;25.60;;;;;;;-0.97;100.00;97883.34;5098372;28;20216;-61
2023/02/15 04:51:54;;;;;;;39.03;25.47;;;;;;;-1.04;100.00;97883.97;5075280;28;20656;-60
2023/02/15 04:54:20;;;;;;;36.57;25.70;;;;;;;-0.99;100.00;97881.81;5106178;28;20180;-59
2023/02/15 04:56:45;;;;;;;36.63;25.07;;;;;;;-0.92;100.00;97876.03;5113990;28;20382;-61
2023/02/15 04:59:11;;;;;;;39.40;26.10;;;;;;;-0.87;100.00;97873.09;5110454;28;20188;-60
2023/02/15 05:01:37;;;;;;;34.73;24.30;;;;;;;-0.86;100.00;97867.81;5093553;28;20169;-60
2023/02/15 05:04:03;;;;;;;36.97;24.53;;;;;;;-0.89;100.00;97865.47;5093538;28;20192;-60
2023/02/15 05:06:29;;;;;;;36.30;24.13;;;;;;;-0.87;100.00;97861.03;5093173;28;20216;-61
2023/02/15 05:08:55;;;;;;;37.60;25.13;;;;;;;-0.96;100.00;97864.38;5097904;28;20175;-60
2023/02/15 05:11:20;;;;;;;36.83;24.10;;;;;;;-1.03;100.00;97860.69;5113017;28;20208;-61
2023/02/15 05:13:46;;;;;;;39.27;24.83;;;;;;;-1.04;100.00;97864.19;5113584;28;20176;-60
2023/02/15 05:16:11;;;;;;;38.33;24.20;;;;;;;-1.11;100.00;97854.53;5111963;28;20587;-59
2023/02/15 05:18:37;;;;;;;37.13;24.43;;;;;;;-1.16;100.00;97867.78;5095894;28;20196;-61
2023/02/15 05:21:02;;;;;;;38.00;24.40;;;;;;;-1.17;100.00;97870.50;5112741;28;20175;-60
2023/02/15 05:23:28;;;;;;;37.90;25.43;;;;;;;-1.14;100.00;97860.75;5113213;28;20612;-61
2023/02/15 05:34:42;;;;;;;39.73;24.90;;;;;;;-1.16;100.00;97879.81;5187528;22;20339;-72
2023/02/15 05:37:08;;;;;;;37.63;25.87;;;;;;;-1.24;100.00;97882.22;5052363;28;20233;-73
2023/02/15 05:39:33;;;;;;;42.63;26.40;;;;;;;-1.06;100.00;97883.28;5052950;28;20198;-72
2023/02/15 05:42:00;;;;;;;38.67;25.90;;;;;;;-1.10;100.00;97892.19;5051837;28;20198;-72
2023/02/15 05:44:25;;;;;;;35.53;24.87;;;;;;;-1.10;100.00;97887.03;5052969;28;20234;-72
2023/02/15 05:46:50;;;;;;;35.33;25.33;;;;;;;-1.06;100.00;97881.50;5051927;28;20226;-73
2023/02/15 05:49:16;;;;;;;39.30;25.73;;;;;;;-1.11;100.00;97883.66;5053078;28;20644;-73
2023/02/15 05:51:41;;;;;;;37.10;24.47;;;;;;;-1.04;100.00;97881.38;5052630;28;20212;-73
2023/02/15 05:54:07;;;;;;;37.93;23.67;;;;;;;-1.18;100.00;97879.97;5052985;28;20252;-74
2023/02/15 05:56:32;;;;;;;36.00;24.00;;;;;;;-1.23;100.00;97882.09;5052497;28;20197;-73
2023/02/15 05:58:57;;;;;;;38.07;24.50;;;;;;;-1.17;100.00;97870.50;5052627;28;20280;-73
2023/02/15 06:01:23;;;;;;;33.37;24.23;;;;;;;-1.17;100.00;97875.66;5052493;28;20225;-72
2023/02/15 06:03:48;;;;;;;34.03;23.93;;;;;;;-1.18;100.00;97872.25;5052428;28;20638;-72
2023/02/15 06:06:14;;;;;;;34.97;24.50;;;;;;;-1.16;100.00;97875.50;5051259;28;20233;-73
2023/02/15 06:08:39;;;;;;;36.43;24.03;;;;;;;-1.17;100.00;97873.88;5052689;28;20276;-72
2023/02/15 06:11:05;;;;;;;38.23;23.97;;;;;;;-1.12;100.00;97879.47;5052680;28;20208;-72
2023/02/15 06:13:33;;;;;;;34.73;23.30;;;;;;;-1.12;100.00;97878.66;5052496;28;20649;-72
2023/02/15 06:15:58;;;;;;;33.23;23.30;;;;;;;-1.31;100.00;97887.88;5052186;28;20198;-72
2023/02/15 06:18:24;;;;;;;39.87;24.50;;;;;;;-1.37;100.00;97884.97;5050562;28;20212;-72
2023/02/15 06:20:49;;;;;;;33.00;22.17;;;;;;;-1.33;100.00;97888.91;5051216;28;20661;-72
2023/02/15 06:23:15;;;;;;;36.77;23.80;;;;;;;-1.31;100.00;97887.06;5052657;28;20594;-72
2023/02/15 06:25:41;;;;;;;37.97;24.43;;;;;;;-1.30;100.00;97894.66;5056187;28;20261;-72
2023/02/15 06:28:06;;;;;;;36.07;25.13;;;;;;;-1.29;100.00;97903.19;5055519;28;20193;-72
2023/02/15 06:30:32;;;;;;;37.03;24.93;;;;;;;-1.30;100.00;97896.41;5056245;28;20677;-71
2023/02/15 06:32:57;;;;;;;36.63;24.17;;;;;;;-1.14;100.00;97901.09;5054012;28;20309;-72
2023/02/15 06:35:23;;;;;;;34.37;23.67;;;;;;;-1.14;100.00;97893.38;5056158;28;20182;-73
2023/02/15 06:37:48;;;;;;;37.77;23.27;;;;;;;-1.04;100.00;97902.78;5056031;28;20259;-74
2023/02/15 06:40:14;;;;;;;35.63;24.03;;;;;;;-1.11;100.00;97905.97;5056088;28;20201;-72
2023/02/15 06:42:40;;;;;;;34.93;25.10;;;;;;;-1.18;100.00;97910.00;5056142;28;20196;-73
2023/02/15 06:45:06;;;;;;;35.63;24.10;;;;;;;-0.94;100.00;97905.41;5056019;28;20197;-73
2023/02/15 06:47:31;;;;;;;33.03;23.57;;;;;;;-0.85;100.00;97905.47;5055788;28;20558;-73
2023/02/15 06:49:57;;;;;;;38.93;24.67;;;;;;;-0.84;100.00;97901.16;5055765;28;20258;-71
2023/02/15 06:52:22;;;;;;;34.30;24.27;;;;;;;-0.78;100.00;97903.19;5055092;28;20198;-74
2023/02/15 06:54:48;;;;;;;34.80;23.83;;;;;;;-0.75;100.00;97905.53;5055449;28;20272;-73
2023/02/15 06:57:13;;;;;;;37.27;23.53;;;;;;;-0.60;100.00;97908.56;5055781;28;20699;-72
2023/02/15 06:59:38;;;;;;;32.43;23.83;;;;;;;-0.51;100.00;97905.22;5055190;28;20190;-73
2023/02/15 07:02:04;;;;;;;33.00;23.80;;;;;;;-0.45;100.00;97905.50;5055510;28;20262;-73
2023/02/15 07:04:29;;;;;;;37.57;24.73;;;;;;;-0.34;100.00;97909.75;5055579;28;20707;-73
2023/02/15 07:06:55;;;;;;;37.73;25.87;;;;;;;-0.24;100.00;97913.19;5055341;28;20198;-73
2023/02/15 07:09:21;;;;;;;35.77;24.90;;;;;;;-0.14;100.00;97911.44;5056075;28;20190;-73
2023/02/15 07:14:30;;;;;;;36.73;24.83;;;;;;;0.05;100.00;97913.25;5055052;28;20185;-73
2023/02/15 07:16:56;;;;;;;37.67;25.20;;;;;;;0.08;100.00;97914.72;5055380;28;20189;-73
2023/02/15 07:19:21;;;;;;;36.03;23.97;;;;;;;0.28;100.00;97914.63;5055176;28;20244;-73
2023/02/15 07:21:46;;;;;;;36.63;23.97;;;;;;;0.34;100.00;97919.22;5055249;28;20630;-73
2023/02/15 07:24:12;;;;;;;32.50;23.60;;;;;;;0.38;100.00;97922.38;5055140;28;20197;-73
2023/02/15 07:26:37;;;;;;;35.27;24.30;;;;;;;0.46;100.00;97919.91;5055152;28;20205;-73
2023/02/15 07:29:02;;;;;;;34.97;22.90;;;;;;;0.63;100.00;97921.81;5055355;28;20647;-73
2023/02/15 07:31:28;;;;;;;31.43;22.83;;;;;;;0.64;100.00;97922.66;5054996;28;20206;-73
2023/02/15 07:33:53;;;;;;;28.93;20.73;;;;;;;0.70;100.00;97925.50;5039251;28;20647;-70
2023/02/15 07:36:19;;;;;;;29.33;20.73;;;;;;;0.77;100.00;97918.03;5054699;28;20221;-72
2023/02/15 07:38:44;;;;;;;28.73;20.63;;;;;;;1.04;100.00;97922.47;5055709;28;20548;-72
2023/02/15 07:41:13;;;;;;;29.07;20.57;;;;;;;1.24;100.00;97918.88;5055034;28;20194;-74
2023/02/15 07:43:40;;;;;;;29.30;21.33;;;;;;;1.33;100.00;97918.06;5055191;28;20198;-73
2023/02/15 07:46:11;;;;;;;27.63;21.10;;;;;;;1.12;100.00;97909.66;5054055;28;20214;-72
2023/02/15 07:48:38;;;;;;;26.50;19.97;;;;;;;1.12;100.00;97907.91;5054808;28;20178;-72
2023/02/15 07:51:05;;;;;;;27.93;20.57;;;;;;;1.32;100.00;97908.69;5053323;28;20255;-72
2023/02/15 07:53:31;;;;;;;26.93;19.90;;;;;;;1.45;100.00;97916.13;5055232;28;20196;-73
2023/02/15 07:56:01;;;;;;;25.07;19.47;;;;;;;1.52;100.00;97906.81;5053926;28;20186;-73
2023/02/15 07:58:50;;;;;;;28.03;20.33;;;;;;;1.58;100.00;97907.06;5054051;28;20660;-72
2023/02/15 08:01:12;;;;;;;23.37;19.07;;;;;;;1.79;100.00;97909.41;5054312;28;20252;-72
2023/02/15 08:03:37;;;;;;;27.67;20.57;;;;;;;1.89;100.00;97902.44;5055055;28;20190;-73
2023/02/15 08:06:03;;;;;;;21.57;18.37;;;;;;;1.91;100.00;97900.53;5054933;28;20208;-73
2023/02/15 08:08:31;;;;;;;23.77;17.80;;;;;;;1.96;100.00;97905.25;5055095;28;20184;-73
2023/02/15 08:13:55;;;;;;;25.30;19.30;;;;;;;1.97;100.00;97904.28;5054329;28;20657;-73
2023/02/15 08:16:35;;;;;;;24.20;19.63;;;;;;;2.11;100.00;97911.56;5054416;28;20228;-73
2023/02/15 08:19:04;;;;;;;36.90;33.40;;;;;;;2.49;100.00;97916.47;5054759;28;20193;-73
2023/02/15 08:21:30;;;;;;;43.70;39.83;;;;;;;2.17;100.00;97918.75;5056810;28;20189;-73
2023/02/15 08:23:55;;;;;;;33.80;30.63;;;;;;;1.76;100.00;97921.81;5055794;28;20194;-73
2023/02/15 08:26:22;;;;;;;28.00;25.20;;;;;;;2.07;100.00;97908.44;5054148;28;20277;-72
2023/02/15 08:28:48;;;;;;;24.97;17.57;;;;;;;1.98;100.00;97908.50;5054348;28;20186;-73
2023/02/15 08:31:14;;;;;;;25.40;19.57;;;;;;;2.17;100.00;97915.34;5054125;28;20248;-73
2023/02/15 08:33:41;;;;;;;24.73;17.63;;;;;;;2.06;100.00;97913.78;5051456;28;20283;-73
2023/02/15 08:36:09;;;;;;;21.87;18.97;;;;;;;1.89;100.00;97907.63;5054207;28;20213;-73
2023/02/15 08:38:35;;;;;;;23.13;17.50;;;;;;;1.90;100.00;97914.41;5054293;28;20630;-73
2023/02/15 08:41:12;;;;;;;22.90;17.50;;;;;;;1.84;100.00;97920.13;5053947;28;20256;-76
2023/02/15 08:43:38;;;;;;;21.07;17.03;;;;;;;1.52;100.00;97923.13;5054321;28;20671;-73
2023/02/15 08:46:04;;;;;;;24.57;18.67;;;;;;;1.41;100.00;97920.72;5052776;28;20194;-72
2023/02/15 08:48:29;;;;;;;27.87;18.57;;;;;;;1.21;100.00;97916.59;5054090;28;20236;-72
2023/02/15 08:50:55;;;;;;;24.53;19.27;;;;;;;1.46;100.00;97909.97;5053745;28;20292;-72
2023/02/15 08:53:21;;;;;;;24.70;18.00;;;;;;;1.28;100.00;97917.66;5053713;28;20186;-72
2023/02/15 08:55:47;;;;;;;23.40;18.27;;;;;;;1.57;100.00;97914.97;5053887;28;20583;-73
2023/02/15 08:58:13;;;;;;;31.10;19.00;;;;;;;1.62;100.00;97912.75;5052581;28;20201;-73
2023/02/15 09:00:38;;;;;;;25.57;18.73;;;;;;;1.54;100.00;97907.50;5053615;28;20197;-72
2023/02/15 09:03:03;;;;;;;24.83;18.30;;;;;;;1.67;100.00;97908.00;5053955;28;20201;-73
2023/02/15 09:05:29;;;;;;;26.97;18.77;;;;;;;1.73;100.00;97904.03;5054092;28;20205;-72
2023/02/15 09:07:54;;;;;;;25.23;18.67;;;;;;;1.40;100.00;97903.59;5053523;28;20320;-72
2023/02/15 09:10:20;;;;;;;26.27;20.33;;;;;;;1.25;100.00;97905.03;5053476;28;20201;-71
2023/02/15 09:12:45;;;;;;;23.27;18.53;;;;;;;1.25;100.00;97898.09;5052881;28;20295;-71
2023/02/15 09:15:11;;;;;;;26.53;18.07;;;;;;;1.30;100.00;97895.06;5053550;28;20548;-71
2023/02/15 09:17:36;;;;;;;24.80;18.77;;;;;;;1.10;100.00;97885.78;5053465;28;20190;-71
2023/02/15 09:20:02;;;;;;;25.10;18.97;;;;;;;1.53;100.00;97890.38;5053755;28;20186;-72
2023/02/15 09:22:28;;;;;;;23.90;18.60;;;;;;;1.78;100.00;97883.75;5053452;28;20198;-71
2023/02/15 09:24:53;;;;;;;27.03;20.03;;;;;;;1.92;100.00;97889.22;5053046;28;20189;-72
2023/02/15 09:27:18;;;;;;;26.43;18.87;;;;;;;1.98;100.00;97887.84;5053283;28;20186;-72
2023/02/15 09:29:43;;;;;;;23.87;18.07;;;;;;;1.98;100.00;97893.81;5053232;28;20189;-71
2023/02/15 09:32:13;;;;;;;23.60;18.23;;;;;;;2.32;100.00;97890.59;5043254;28;20230;-72
2023/02/15 09:34:39;;;;;;;23.90;18.77;;;;;;;2.54;100.00;97884.16;5032559;28;20314;-73
2023/02/15 09:37:05;;;;;;;28.80;18.53;;;;;;;2.47;100.00;97883.94;5031977;28;20186;-72
2023/02/15 09:39:30;;;;;;;24.60;19.50;;;;;;;2.71;100.00;97880.75;5033148;28;20198;-72
2023/02/15 09:42:14;;;;;;;29.80;20.57;;;;;;;2.66;100.00;97876.03;5033134;28;20264;-72
2023/02/15 09:45:06;;;;;;;25.13;19.83;;;;;;;2.90;100.00;97870.19;5033054;28;20217;-71
2023/02/15 09:47:53;;;;;;;27.80;19.90;;;;;;;3.12;100.00;97872.28;5049524;28;20190;-71
2023/02/15 09:50:53;;;;;;;31.00;18.27;;;;;;;2.88;100.00;97878.13;5052858;28;20210;-73
2023/02/15 09:53:24;;;;;;;26.33;20.03;;;;;;;3.05;100.00;97870.47;5051896;28;20236;-72
2023/02/15 09:56:10;;;;;;;27.07;19.80;;;;;;;3.30;100.00;97869.63;5052698;28;20211;-72
2023/02/15 09:58:51;;;;;;;25.23;19.17;;;;;;;3.30;100.00;97869.63;5054981;28;20261;-72
2023/02/15 10:01:25;;;;;;;27.13;21.83;;;;;;;3.30;100.00;97864.44;5057160;28;20200;-71
2023/02/15 10:04:05;;;;;;;32.33;22.53;;;;;;;3.57;100.00;97873.81;5056815;28;20250;-72
2023/02/15 10:06:56;;;;;;;24.83;19.57;;;;;;;3.45;100.00;97870.69;5056790;28;20292;-72
2023/02/15 10:09:30;;;;;;;27.83;20.47;;;;;;;3.66;100.00;97865.09;5057030;28;20174;-71
2023/02/15 10:12:11;;;;;;;26.17;21.83;;;;;;;3.90;100.00;97864.38;5056766;28;20217;-72
2023/02/15 10:15:01;;;;;;;26.70;21.50;;;;;;;4.00;100.00;97859.88;5056877;28;20189;-72
2023/02/15 10:17:54;;;;;;;26.13;21.23;;;;;;;4.37;99.65;97862.03;5056620;28;20182;-72
2023/02/15 10:20:25;;;;;;;27.37;20.80;;;;;;;4.35;99.95;97853.59;5056805;28;20189;-72
2023/02/15 10:23:03;;;;;;;23.93;19.13;;;;;;;4.41;100.00;97856.34;5056891;28;20252;-73
2023/02/15 10:25:58;;;;;;;25.03;19.00;;;;;;;4.64;99.71;97859.13;5056513;28;20182;-73
2023/02/15 10:28:29;;;;;;;28.03;20.00;;;;;;;4.75;97.81;97855.38;5056348;28;20213;-73
2023/02/15 10:31:10;;;;;;;27.17;19.03;;;;;;;4.77;99.23;97859.44;5054590;28;20222;-72
2023/02/15 10:33:40;;;;;;;21.73;18.40;;;;;;;4.92;99.15;97859.59;5055626;28;20651;-72
2023/02/15 10:36:07;;;;;;;23.27;18.97;;;;;;;5.14;97.21;97852.88;5056301;28;20186;-72
2023/02/15 10:38:42;;;;;;;24.90;19.63;;;;;;;5.30;96.43;97848.47;5056042;28;20293;-71
2023/02/15 10:41:22;;;;;;;25.10;20.67;;;;;;;5.35;95.51;97847.97;5056368;28;20213;-71
2023/02/15 10:44:10;;;;;;;27.20;18.50;;;;;;;5.34;94.43;97849.78;5056383;28;20190;-71
2023/02/15 10:46:35;;;;;;;20.13;15.23;;;;;;;5.32;93.50;97849.13;5055191;28;20197;-71
2023/02/15 10:49:14;;;;;;;21.60;19.37;;;;;;;5.41;90.25;97845.50;5056540;28;20202;-72
2023/02/15 10:52:11;;;;;;;21.50;18.83;;;;;;;5.66;88.60;97841.03;5055918;28;20197;-72
2023/02/15 10:55:22;;;;;;;18.60;15.13;;;;;;;5.73;86.69;97834.19;5050006;28;20657;-72
2023/02/15 10:58:24;;;;;;;20.60;16.57;;;;;;;5.89;86.30;97829.91;5013835;28;20191;-71
2023/02/15 11:01:05;;;;;;;21.53;16.30;;;;;;;5.83;87.63;97831.34;4998438;28;20186;-72
2023/02/15 11:04:09;;;;;;;19.90;17.83;;;;;;;5.96;85.85;97825.63;5047930;28;20229;-72
2023/02/15 11:06:39;;;;;;;16.23;14.57;;;;;;;6.08;81.29;97819.03;5055977;28;20270;-72
2023/02/15 11:09:18;;;;;;;17.57;14.27;;;;;;;6.25;80.80;97812.72;5055527;28;20216;-72
2023/02/15 11:11:47;;;;;;;15.20;13.63;;;;;;;6.33;79.87;97817.09;5054560;28;20232;-73
2023/02/15 11:14:27;;;;;;;16.70;14.80;;;;;;;6.29;79.25;97813.22;5055859;28;20189;-71
2023/02/15 11:17:02;;;;;;;16.77;15.03;;;;;;;6.41;80.14;97815.22;5055898;28;20501;-71
2023/02/15 11:19:38;;;;;;;19.23;16.73;;;;;;;6.49;80.67;97809.94;5055875;28;20174;-73
2023/02/15 11:22:06;;;;;;;28.03;23.13;;;;;;;6.35;82.43;97810.72;5055230;28;20675;-73
2023/02/15 11:24:38;;;;;;;25.30;22.20;;;;;;;6.22;83.20;97800.06;5055439;28;20186;-72
2023/02/15 11:27:21;;;;;;;26.80;23.73;;;;;;;6.26;84.35;97802.16;5054354;28;20282;-72
2023/02/15 11:30:00;;;;;;;27.17;24.37;;;;;;;6.18;83.92;97802.22;5055426;28;20196;-73
2023/02/15 11:32:54;;;;;;;29.43;23.30;;;;;;;6.02;83.99;97791.13;5053305;28;20650;-74
2023/02/15 11:35:27;;;;;;;26.93;24.17;;;;;;;6.13;83.93;97796.72;5040966;28;20202;-72
2023/02/15 11:38:09;;;;;;;27.97;22.10;;;;;;;6.20;84.41;97800.25;5055587;28;20181;-72
2023/02/15 11:40:45;;;;;;;25.33;22.63;;;;;;;6.24;83.93;97798.13;5055284;28;20182;-75
2023/02/15 11:43:20;;;;;;;26.73;23.93;;;;;;;6.02;85.17;97791.13;5053916;28;20250;-74
2023/02/15 11:45:46;;;;;;;28.57;22.47;;;;;;;5.91;84.82;97797.50;5054403;28;20192;-73
2023/02/15 11:48:13;;;;;;;29.37;25.10;;;;;;;6.04;84.92;97796.94;5054978;28;20264;-72
2023/02/15 11:50:39;;;;;;;32.03;25.47;;;;;;;6.11;83.95;97796.09;5054786;28;20214;-72
2023/02/15 11:53:12;;;;;;;29.67;23.60;;;;;;;6.10;83.85;97797.06;5055231;28;20182;-73
2023/02/15 11:55:37;;;;;;;29.23;26.10;;;;;;;6.29;83.56;97798.41;5054474;28;20700;-71
2023/02/15 11:58:25;;;;;;;31.40;24.90;;;;;;;6.38;83.02;97799.13;5054696;28;20178;-71
2023/02/15 12:00:58;;;;;;;31.23;26.70;;;;;;;6.31;83.36;97798.22;5055019;28;20185;-71
2023/02/15 12:03:35;;;;;;;29.13;23.17;;;;;;;6.30;82.60;97801.81;5054689;28;20190;-72
2023/02/15 12:06:03;;;;;;;31.67;22.80;;;;;;;6.28;82.63;97799.38;5054585;28;20218;-71